createdAt,value
2018-04-16T00:00:07.017Z,66.74
2018-04-16T00:01:07.000Z,66.06
2018-04-16T00:02:07.053Z,66.64
2018-04-16T00:03:07.033Z,66.25
2018-04-16T00:04:07.075Z,66.45
2018-04-16T00:05:07.051Z,66.45
2018-04-16T00:06:07.107Z,66.25
2018-04-16T00:07:07.063Z,66.22
2018-04-16T00:08:07.119Z,67.02
2018-04-16T00:09:07.091Z,67.02
2018-04-16T00:10:07.109Z,66.83
2018-04-16T00:11:07.173Z,66.93
2018-04-16T00:12:07.136Z,66.80
2018-04-16T00:13:07.144Z,67.08
2018-04-16T00:14:07.153Z,66.51
2018-04-16T00:15:07.166Z,66.41
2018-04-16T00:16:07.241Z,67.08
2018-04-16T00:17:07.185Z,67.21
2018-04-16T00:18:07.203Z,67.31
2018-04-16T00:19:07.230Z,66.93
2018-04-16T00:20:07.229Z,66.83
2018-04-16T00:21:07.260Z,67.11
2018-04-16T00:22:07.251Z,67.11
2018-04-16T00:23:07.256Z,66.54
2018-04-16T00:24:07.265Z,66.51
2018-04-16T00:25:07.268Z,66.74
2018-04-16T00:26:07.321Z,66.32
2018-04-16T00:27:07.289Z,66.80
2018-04-16T00:28:07.307Z,66.80
2018-04-16T00:29:07.312Z,67.27
2018-04-16T00:30:07.319Z,66.89
2018-04-16T00:31:07.389Z,67.08
2018-04-16T00:32:07.344Z,66.89
2018-04-16T00:33:07.367Z,66.89
2018-04-16T00:34:07.382Z,67.47
2018-04-16T00:35:07.392Z,67.76
2018-04-16T00:36:07.428Z,67.66
2018-04-16T00:37:07.403Z,67.76
2018-04-16T00:38:07.440Z,67.76
2018-04-16T00:39:07.442Z,67.37
2018-04-16T00:40:07.449Z,67.66
2018-04-16T00:41:07.459Z,67.76
2018-04-16T00:42:07.500Z,67.47
2018-04-16T00:43:07.466Z,67.76
2018-04-16T00:44:07.476Z,68.23
2018-04-16T00:45:07.500Z,67.94
2018-04-16T00:46:07.505Z,67.76
2018-04-16T00:47:07.577Z,68.23
2018-04-16T00:48:07.549Z,67.94
2018-04-16T00:49:07.547Z,67.76
2018-04-16T00:50:07.548Z,67.66
2018-04-16T00:51:07.557Z,67.66
2018-04-16T00:52:07.627Z,68.13
2018-04-16T00:53:07.599Z,68.33
2018-04-16T00:54:07.593Z,67.85
2018-04-16T00:55:07.615Z,68.04
2018-04-16T00:56:07.636Z,67.76
2018-04-16T00:57:07.702Z,67.94
2018-04-16T00:58:07.645Z,68.13
2018-04-16T00:59:07.658Z,67.76
2018-04-16T01:00:07.651Z,68.23
2018-04-16T01:01:07.687Z,67.94
2018-04-16T01:02:07.723Z,67.85
2018-04-16T01:03:07.697Z,68.04
2018-04-16T01:04:07.705Z,67.66
2018-04-16T01:05:07.715Z,67.85
2018-04-16T01:06:07.734Z,67.94
2018-04-16T01:07:07.784Z,68.04
2018-04-16T01:08:07.789Z,67.76
2018-04-16T01:09:07.766Z,67.76
2018-04-16T01:10:07.776Z,67.85
2018-04-16T01:11:07.778Z,67.56
2018-04-16T01:12:07.797Z,67.94
2018-04-16T01:13:07.845Z,67.56
2018-04-16T01:14:07.842Z,67.56
2018-04-16T01:15:07.817Z,67.56
2018-04-16T01:16:07.850Z,67.47
2018-04-16T01:17:07.842Z,67.56
2018-04-16T01:18:07.919Z,67.66
2018-04-16T01:19:07.881Z,67.76
2018-04-16T01:20:07.893Z,67.76
2018-04-16T01:21:07.899Z,67.76
2018-04-16T01:22:07.894Z,67.66
2018-04-16T01:23:07.962Z,67.66
2018-04-16T01:24:07.931Z,67.56
2018-04-16T01:25:07.949Z,67.76
2018-04-16T01:26:07.949Z,67.37
2018-04-16T01:27:07.976Z,67.47
2018-04-16T01:28:08.009Z,67.56
2018-04-16T01:29:08.055Z,67.66
2018-04-16T01:30:07.989Z,67.85
2018-04-16T01:31:08.000Z,67.76
2018-04-16T01:32:08.027Z,67.76
2018-04-16T01:33:08.028Z,67.66
2018-04-16T01:34:08.075Z,67.37
2018-04-16T01:35:08.057Z,67.53
2018-04-16T01:36:08.125Z,67.27
2018-04-16T01:37:08.071Z,66.89
2018-04-16T01:38:08.101Z,67.91
2018-04-16T01:39:08.095Z,67.53
2018-04-16T01:40:08.127Z,67.63
2018-04-16T01:41:08.112Z,67.72
2018-04-16T01:42:08.172Z,68.01
2018-04-16T01:43:08.132Z,67.72
2018-04-16T01:44:08.145Z,67.72
2018-04-16T01:45:08.185Z,68.01
2018-04-16T01:46:08.180Z,67.72
2018-04-16T01:47:08.251Z,68.01
2018-04-16T01:48:08.196Z,67.91
2018-04-16T01:49:08.207Z,68.01
2018-04-16T01:50:08.220Z,68.01
2018-04-16T01:51:08.249Z,68.10
2018-04-16T01:52:08.266Z,68.20
2018-04-16T01:53:08.254Z,68.20
2018-04-16T01:54:08.267Z,68.20
2018-04-16T01:55:08.320Z,67.82
2018-04-16T01:56:08.287Z,68.29
2018-04-16T01:57:08.284Z,67.82
2018-04-16T01:58:08.331Z,68.29
2018-04-16T01:59:08.308Z,68.20
2018-04-16T02:00:08.326Z,67.91
2018-04-16T02:01:08.376Z,68.01
2018-04-16T02:02:08.336Z,68.39
2018-04-16T02:03:08.363Z,68.55
2018-04-16T02:04:08.374Z,67.88
2018-04-16T02:05:08.379Z,68.64
2018-04-16T02:06:08.405Z,68.39
2018-04-16T02:07:08.403Z,68.45
2018-04-16T02:08:08.420Z,68.55
2018-04-16T02:09:08.458Z,68.26
2018-04-16T02:10:08.429Z,68.84
2018-04-16T02:11:08.460Z,68.64
2018-04-16T02:12:08.461Z,68.74
2018-04-16T02:13:08.467Z,68.55
2018-04-16T02:14:08.510Z,68.74
2018-04-16T02:15:08.488Z,68.84
2018-04-16T02:16:08.507Z,68.64
2018-04-16T02:17:08.500Z,68.64
2018-04-16T02:18:08.508Z,68.55
2018-04-16T02:19:08.577Z,68.64
2018-04-16T02:20:08.546Z,68.74
2018-04-16T02:21:08.545Z,68.55
2018-04-16T02:22:08.560Z,68.45
2018-04-16T02:23:08.573Z,68.74
2018-04-16T02:24:08.628Z,69.31
2018-04-16T02:25:08.597Z,69.50
2018-04-16T02:26:08.606Z,68.74
2018-04-16T02:27:08.617Z,68.74
2018-04-16T02:28:08.625Z,68.74
2018-04-16T02:29:08.660Z,69.41
2018-04-16T02:30:08.639Z,69.21
2018-04-16T02:31:08.666Z,69.50
2018-04-16T02:32:08.654Z,69.41
2018-04-16T02:33:08.688Z,69.37
2018-04-16T02:34:08.707Z,69.21
2018-04-16T02:35:08.767Z,69.41
2018-04-16T02:36:08.719Z,68.93
2018-04-16T02:37:08.715Z,69.12
2018-04-16T02:38:08.722Z,68.93
2018-04-16T02:39:08.738Z,68.84
2018-04-16T02:40:08.776Z,69.02
2018-04-16T02:41:08.763Z,69.70
2018-04-16T02:42:08.786Z,69.56
2018-04-16T02:43:08.786Z,69.66
2018-04-16T02:44:08.785Z,70.42
2018-04-16T02:45:08.831Z,69.70
2018-04-16T02:46:08.804Z,69.76
2018-04-16T02:47:08.829Z,69.31
2018-04-16T02:48:08.832Z,69.41
2018-04-16T02:49:08.849Z,69.21
2018-04-16T02:50:08.885Z,69.41
2018-04-16T02:51:08.865Z,69.21
2018-04-16T02:52:08.875Z,69.50
2018-04-16T02:53:08.906Z,68.93
2018-04-16T02:54:08.897Z,68.93
2018-04-16T02:55:08.961Z,69.41
2018-04-16T02:56:08.926Z,69.31
2018-04-16T02:57:08.934Z,69.12
2018-04-16T02:58:08.941Z,69.31
2018-04-16T02:59:08.938Z,69.31
2018-04-16T03:00:09.001Z,68.84
2018-04-16T03:01:08.964Z,68.93
2018-04-16T03:02:08.971Z,69.12
2018-04-16T03:03:08.993Z,69.21
2018-04-16T03:04:08.994Z,68.64
2018-04-16T03:05:09.031Z,68.45
2018-04-16T03:06:09.042Z,68.55
2018-04-16T03:07:09.036Z,68.74
2018-04-16T03:08:09.035Z,68.64
2018-04-16T03:09:09.062Z,68.93
2018-04-16T03:10:09.112Z,68.55
2018-04-16T03:11:09.091Z,68.64
2018-04-16T03:12:09.078Z,68.84
2018-04-16T03:13:09.091Z,68.64
2018-04-16T03:14:09.110Z,68.84
2018-04-16T03:15:09.177Z,68.16
2018-04-16T03:16:09.134Z,68.55
2018-04-16T03:17:09.131Z,68.35
2018-04-16T03:18:09.164Z,68.55
2018-04-16T03:19:09.165Z,67.97
2018-04-16T03:20:09.193Z,67.78
2018-04-16T03:21:09.185Z,67.78
2018-04-16T03:22:09.193Z,68.64
2018-04-16T03:23:09.217Z,68.64
2018-04-16T03:24:09.222Z,68.55
2018-04-16T03:25:09.244Z,68.35
2018-04-16T03:26:09.243Z,68.39
2018-04-16T03:27:09.251Z,68.10
2018-04-16T03:28:09.252Z,68.20
2018-04-16T03:29:09.259Z,68.68
2018-04-16T03:30:09.305Z,68.10
2018-04-16T03:31:09.282Z,68.01
2018-04-16T03:32:09.302Z,68.10
2018-04-16T03:33:09.334Z,68.20
2018-04-16T03:34:09.349Z,67.34
2018-04-16T03:35:09.381Z,67.43
2018-04-16T03:36:09.408Z,67.14
2018-04-16T03:37:09.368Z,67.43
2018-04-16T03:38:09.374Z,67.53
2018-04-16T03:39:09.375Z,67.43
2018-04-16T03:40:09.393Z,67.63
2018-04-16T03:41:09.440Z,67.53
2018-04-16T03:42:09.400Z,67.14
2018-04-16T03:43:09.409Z,67.14
2018-04-16T03:44:09.454Z,67.53
2018-04-16T03:45:09.441Z,66.67
2018-04-16T03:46:09.499Z,66.96
2018-04-16T03:47:09.451Z,67.47
2018-04-16T03:48:09.491Z,67.27
2018-04-16T03:49:09.487Z,67.37
2018-04-16T03:50:09.490Z,66.89
2018-04-16T03:51:09.528Z,67.08
2018-04-16T03:52:09.509Z,67.18
2018-04-16T03:53:09.564Z,66.80
2018-04-16T03:54:09.535Z,67.37
2018-04-16T03:55:09.598Z,66.70
2018-04-16T03:56:09.573Z,66.41
2018-04-16T03:57:09.579Z,66.22
2018-04-16T03:58:09.598Z,66.41
2018-04-16T03:59:09.616Z,66.13
2018-04-16T04:00:09.604Z,66.22
2018-04-16T04:01:09.612Z,66.80
2018-04-16T04:02:09.642Z,66.32
2018-04-16T04:03:09.644Z,66.22
2018-04-16T04:04:09.691Z,66.22
2018-04-16T04:05:09.663Z,66.22
2018-04-16T04:06:09.692Z,66.41
2018-04-16T04:07:09.684Z,66.51
2018-04-16T04:08:09.682Z,66.51
2018-04-16T04:09:09.785Z,66.13
2018-04-16T04:10:09.720Z,66.03
2018-04-16T04:11:09.738Z,65.94
2018-04-16T04:12:09.741Z,66.38
2018-04-16T04:13:09.775Z,66.13
2018-04-16T04:14:09.836Z,66.51
2018-04-16T04:15:09.768Z,66.19
2018-04-16T04:16:09.789Z,66.51
2018-04-16T04:17:09.814Z,66.19
2018-04-16T04:18:09.802Z,66.47
2018-04-16T04:19:09.810Z,66.41
2018-04-16T04:20:09.880Z,66.51
2018-04-16T04:21:09.829Z,66.41
2018-04-16T04:22:09.836Z,66.13
2018-04-16T04:23:09.853Z,66.32
2018-04-16T04:24:09.891Z,66.13
2018-04-16T04:25:09.927Z,66.22
2018-04-16T04:26:09.892Z,66.51
2018-04-16T04:27:09.898Z,66.41
2018-04-16T04:28:09.913Z,66.70
2018-04-16T04:29:09.914Z,66.41
2018-04-16T04:30:09.936Z,66.32
2018-04-16T04:31:09.985Z,66.41
2018-04-16T04:32:09.945Z,65.84
2018-04-16T04:33:09.976Z,66.22
2018-04-16T04:34:10.006Z,66.41
2018-04-16T04:35:09.991Z,66.13
2018-04-16T04:36:10.005Z,66.61
2018-04-16T04:37:09.998Z,66.51
2018-04-16T04:38:10.008Z,65.94
2018-04-16T04:39:10.107Z,66.41
2018-04-16T04:40:10.038Z,66.03
2018-04-16T04:41:10.044Z,66.51
2018-04-16T04:42:10.069Z,66.32
2018-04-16T04:43:10.067Z,66.32
2018-04-16T04:44:10.100Z,66.32
2018-04-16T04:45:10.220Z,66.32
2018-04-16T04:46:10.141Z,66.32
2018-04-16T04:47:10.113Z,66.32
2018-04-16T04:48:10.125Z,67.18
2018-04-16T04:49:10.129Z,66.13
2018-04-16T04:50:10.212Z,66.13
2018-04-16T04:51:10.163Z,66.22
2018-04-16T04:52:10.171Z,66.89
2018-04-16T04:53:10.210Z,66.86
2018-04-16T04:54:10.196Z,67.34
2018-04-16T04:55:10.226Z,66.67
2018-04-16T04:56:10.220Z,66.76
2018-04-16T04:57:10.226Z,66.89
2018-04-16T04:58:10.230Z,66.19
2018-04-16T04:59:10.246Z,66.67
2018-04-16T05:00:10.285Z,66.76
2018-04-16T05:01:10.276Z,66.67
2018-04-16T05:02:10.293Z,66.80
2018-04-16T05:03:10.285Z,66.51
2018-04-16T05:04:10.295Z,66.47
2018-04-16T05:05:10.325Z,66.67
2018-04-16T05:06:10.355Z,67.14
2018-04-16T05:07:10.333Z,66.76
2018-04-16T05:08:10.360Z,67.24
2018-04-16T05:09:10.348Z,66.96
2018-04-16T05:10:10.365Z,67.34
2018-04-16T05:11:10.394Z,67.27
2018-04-16T05:12:10.448Z,66.67
2018-04-16T05:13:10.439Z,66.41
2018-04-16T05:14:10.421Z,66.61
2018-04-16T05:15:10.416Z,66.96
2018-04-16T05:16:10.425Z,66.86
2018-04-16T05:17:10.432Z,67.05
2018-04-16T05:18:10.488Z,66.99
2018-04-16T05:19:10.488Z,66.96
2018-04-16T05:20:10.465Z,67.37
2018-04-16T05:21:10.775Z,66.99
2018-04-16T05:22:10.490Z,66.51
2018-04-16T05:23:10.508Z,66.89
2018-04-16T05:24:10.529Z,66.89
2018-04-16T05:25:10.522Z,66.70
2018-04-16T05:26:10.542Z,66.61
2018-04-16T05:27:10.564Z,66.89
2018-04-16T05:28:10.551Z,66.41
2018-04-16T05:29:10.578Z,66.80
2018-04-16T05:30:10.591Z,66.89
2018-04-16T05:31:10.612Z,66.80
2018-04-16T05:32:10.663Z,66.80
2018-04-16T05:33:10.607Z,66.61
2018-04-16T05:34:10.618Z,66.80
2018-04-16T05:35:10.651Z,66.61
2018-04-16T05:36:10.654Z,66.89
2018-04-16T05:37:10.668Z,66.61
2018-04-16T05:38:10.717Z,66.41
2018-04-16T05:39:10.688Z,66.41
2018-04-16T05:40:10.695Z,66.51
2018-04-16T05:41:10.715Z,66.89
2018-04-16T05:42:10.721Z,66.51
2018-04-16T05:43:10.773Z,67.37
2018-04-16T05:44:10.730Z,66.89
2018-04-16T05:45:10.745Z,67.18
2018-04-16T05:46:10.768Z,67.47
2018-04-16T05:47:10.763Z,67.18
2018-04-16T05:48:10.859Z,66.99
2018-04-16T05:49:10.791Z,67.47
2018-04-16T05:50:10.803Z,67.27
2018-04-16T05:51:10.813Z,67.85
2018-04-16T05:52:10.833Z,66.89
2018-04-16T05:53:10.835Z,67.47
2018-04-16T05:54:10.953Z,67.66
2018-04-16T05:55:10.923Z,67.56
2018-04-16T05:56:10.897Z,67.66
2018-04-16T05:57:10.883Z,67.76
2018-04-16T05:58:10.959Z,67.27
2018-04-16T05:59:10.938Z,67.60
2018-04-16T06:00:10.945Z,67.47
2018-04-16T06:01:10.946Z,66.61
2018-04-16T06:02:10.949Z,66.51
2018-04-16T06:03:10.965Z,66.89
2018-04-16T06:04:10.953Z,66.83
2018-04-16T06:05:11.035Z,67.08
2018-04-16T06:06:10.974Z,66.41
2018-04-16T06:07:10.988Z,66.61
2018-04-16T06:08:11.031Z,66.51
2018-04-16T06:09:10.998Z,67.08
2018-04-16T06:10:11.049Z,66.89
2018-04-16T06:11:11.025Z,66.89
2018-04-16T06:12:11.052Z,67.27
2018-04-16T06:13:11.046Z,67.18
2018-04-16T06:14:11.097Z,66.80
2018-04-16T06:15:11.104Z,67.18
2018-04-16T06:16:11.090Z,67.47
2018-04-16T06:17:11.113Z,67.47
2018-04-16T06:18:11.135Z,67.76
2018-04-16T06:19:11.198Z,67.37
2018-04-16T06:20:11.161Z,68.23
2018-04-16T06:21:11.154Z,68.23
2018-04-16T06:22:11.148Z,68.04
2018-04-16T06:23:11.171Z,67.66
2018-04-16T06:24:11.191Z,67.85
2018-04-16T06:25:11.202Z,67.94
2018-04-16T06:26:11.195Z,68.52
2018-04-16T06:27:11.255Z,68.33
2018-04-16T06:28:11.239Z,67.94
2018-04-16T06:29:11.227Z,68.42
2018-04-16T06:30:11.283Z,67.94
2018-04-16T06:31:11.254Z,68.39
2018-04-16T06:32:11.297Z,67.85
2018-04-16T06:33:11.267Z,67.76
2018-04-16T06:34:11.307Z,68.62
2018-04-16T06:35:11.310Z,68.71
2018-04-16T06:36:11.371Z,69.48
2018-04-16T06:37:11.313Z,68.90
2018-04-16T06:38:11.318Z,68.80
2018-04-16T06:39:11.354Z,68.42
2018-04-16T06:40:11.360Z,69.29
2018-04-16T06:41:11.382Z,69.19
2018-04-16T06:42:11.360Z,69.38
2018-04-16T06:43:11.431Z,69.57
2018-04-16T06:44:11.390Z,69.38
2018-04-16T06:45:11.410Z,69.00
2018-04-16T06:46:11.423Z,69.29
2018-04-16T06:47:11.420Z,69.67
2018-04-16T06:48:11.463Z,70.05
2018-04-16T06:49:11.449Z,69.73
2018-04-16T06:50:11.492Z,69.54
2018-04-16T06:51:11.457Z,70.40
2018-04-16T06:52:11.479Z,69.82
2018-04-16T06:53:11.512Z,69.82
2018-04-16T06:54:11.517Z,69.64
2018-04-16T06:55:11.538Z,70.30
2018-04-16T06:56:11.539Z,70.68
2018-04-16T06:57:11.573Z,70.40
2018-04-16T06:58:11.534Z,70.87
2018-04-16T06:59:11.574Z,70.78
2018-04-16T07:00:11.564Z,70.50
2018-04-16T07:01:11.578Z,71.16
2018-04-16T07:02:11.619Z,72.22
2018-04-16T07:03:11.656Z,71.64
2018-04-16T07:04:11.656Z,71.83
2018-04-16T07:05:11.646Z,71.73
2018-04-16T07:06:11.635Z,72.22
2018-04-16T07:07:11.672Z,71.64
2018-04-16T07:08:11.697Z,71.64
2018-04-16T07:09:11.657Z,72.41
2018-04-16T07:10:11.716Z,71.83
2018-04-16T07:11:11.680Z,71.16
2018-04-16T07:12:11.701Z,71.20
2018-04-16T07:13:11.755Z,71.87
2018-04-16T07:14:11.708Z,71.64
2018-04-16T07:15:11.712Z,72.16
2018-04-16T07:16:11.753Z,71.45
2018-04-16T07:17:11.753Z,71.48
2018-04-16T07:18:11.794Z,71.77
2018-04-16T07:19:11.789Z,72.34
2018-04-16T07:20:11.824Z,73.11
2018-04-16T07:21:11.787Z,72.54
2018-04-16T07:22:11.797Z,71.58
2018-04-16T07:23:11.873Z,72.25
2018-04-16T07:24:11.865Z,72.54
2018-04-16T07:25:11.822Z,72.73
2018-04-16T07:26:11.859Z,72.44
2018-04-16T07:27:11.872Z,71.58
2018-04-16T07:28:11.869Z,71.87
2018-04-16T07:29:11.909Z,72.06
2018-04-16T07:30:11.886Z,71.58
2018-04-16T07:31:11.898Z,72.06
2018-04-16T07:32:11.905Z,72.16
2018-04-16T07:33:11.915Z,72.34
2018-04-16T07:34:11.970Z,72.34
2018-04-16T07:35:11.937Z,72.44
2018-04-16T07:36:11.958Z,72.25
2018-04-16T07:37:11.970Z,72.54
2018-04-16T07:38:12.002Z,71.68
2018-04-16T07:39:12.040Z,71.68
2018-04-16T07:40:12.002Z,72.34
2018-04-16T07:41:12.017Z,72.16
2018-04-16T07:42:12.025Z,72.34
2018-04-16T07:43:12.029Z,72.44
2018-04-16T07:44:12.060Z,73.30
2018-04-16T07:45:12.105Z,73.11
2018-04-16T07:46:12.065Z,73.11
2018-04-16T07:47:12.076Z,72.73
2018-04-16T07:48:12.084Z,72.63
2018-04-16T07:49:12.086Z,73.21
2018-04-16T07:50:12.125Z,73.11
2018-04-16T07:51:12.157Z,72.92
2018-04-16T07:52:12.146Z,73.02
2018-04-16T07:53:12.134Z,72.63
2018-04-16T07:54:12.158Z,73.11
2018-04-16T07:55:12.168Z,72.83
2018-04-16T07:56:12.217Z,72.34
2018-04-16T07:57:12.200Z,72.83
2018-04-16T07:58:12.191Z,72.34
2018-04-16T07:59:12.207Z,72.83
2018-04-16T08:00:12.218Z,72.73
2018-04-16T08:01:12.250Z,72.06
2018-04-16T08:02:12.283Z,73.11
2018-04-16T08:03:12.278Z,72.92
2018-04-16T08:04:12.253Z,72.73
2018-04-16T08:05:12.268Z,73.11
2018-04-16T08:06:12.292Z,72.92
2018-04-16T08:07:12.356Z,73.59
2018-04-16T08:08:12.307Z,73.30
2018-04-16T08:09:12.370Z,73.02
2018-04-16T08:10:12.344Z,73.11
2018-04-16T08:11:12.328Z,73.11
2018-04-16T08:12:12.364Z,73.21
2018-04-16T08:13:12.370Z,73.30
2018-04-16T08:14:12.370Z,73.30
2018-04-16T08:15:12.404Z,73.30
2018-04-16T08:16:12.391Z,73.21
2018-04-16T08:17:12.395Z,73.69
2018-04-16T08:18:12.416Z,73.11
2018-04-16T08:19:12.421Z,73.59
2018-04-16T08:20:12.454Z,73.59
2018-04-16T08:21:12.451Z,73.50
2018-04-16T08:22:12.455Z,73.21
2018-04-16T08:23:12.478Z,73.50
2018-04-16T08:24:12.476Z,73.97
2018-04-16T08:25:12.525Z,73.97
2018-04-16T08:26:12.501Z,73.88
2018-04-16T08:27:12.516Z,73.97
2018-04-16T08:28:12.522Z,73.59
2018-04-16T08:29:12.552Z,73.59
2018-04-16T08:30:12.590Z,73.40
2018-04-16T08:31:12.566Z,73.11
2018-04-16T08:32:12.579Z,73.97
2018-04-16T08:33:12.588Z,73.69
2018-04-16T08:34:12.584Z,73.40
2018-04-16T08:35:12.628Z,73.11
2018-04-16T08:36:12.615Z,73.50
2018-04-16T08:37:12.620Z,74.07
2018-04-16T08:38:12.637Z,73.97
2018-04-16T08:39:12.653Z,73.97
2018-04-16T08:40:12.696Z,73.11
2018-04-16T08:41:12.654Z,73.02
2018-04-16T08:42:12.683Z,73.40
2018-04-16T08:43:12.688Z,73.21
2018-04-16T08:44:12.689Z,72.63
2018-04-16T08:45:12.771Z,72.83
2018-04-16T08:46:12.728Z,73.02
2018-04-16T08:47:12.743Z,72.73
2018-04-16T08:48:12.745Z,73.30
2018-04-16T08:49:12.755Z,72.34
2018-04-16T08:50:12.798Z,73.11
2018-04-16T08:51:12.814Z,72.73
2018-04-16T08:52:12.785Z,72.73
2018-04-16T08:53:12.813Z,72.73
2018-04-16T08:54:12.797Z,72.83
2018-04-16T08:55:12.849Z,73.02
2018-04-16T08:56:12.876Z,73.11
2018-04-16T08:57:12.871Z,73.79
2018-04-16T08:58:12.873Z,73.69
2018-04-16T08:59:12.889Z,74.07
2018-04-16T09:00:12.882Z,72.73
2018-04-16T09:01:12.937Z,73.50
2018-04-16T09:02:12.911Z,73.88
2018-04-16T09:03:12.920Z,73.69
2018-04-16T09:04:12.926Z,72.83
2018-04-16T09:05:12.940Z,72.92
2018-04-16T09:06:12.967Z,73.21
2018-04-16T09:07:12.968Z,72.73
2018-04-16T09:08:12.958Z,73.11
2018-04-16T09:09:12.995Z,73.11
2018-04-16T09:10:12.980Z,72.92
2018-04-16T09:11:13.053Z,73.40
2018-04-16T09:12:13.009Z,73.40
2018-04-16T09:13:13.054Z,73.69
2018-04-16T09:14:13.050Z,74.16
2018-04-16T09:15:13.038Z,73.11
2018-04-16T09:16:13.094Z,73.02
2018-04-16T09:17:13.106Z,72.73
2018-04-16T09:18:13.075Z,73.21
2018-04-16T09:19:13.117Z,73.02
2018-04-16T09:20:13.133Z,73.11
2018-04-16T09:21:13.096Z,73.21
2018-04-16T09:22:13.138Z,72.92
2018-04-16T09:23:13.120Z,73.40
2018-04-16T09:24:13.168Z,73.40
2018-04-16T09:25:13.159Z,73.11
2018-04-16T09:26:13.168Z,73.21
2018-04-16T09:27:13.200Z,73.50
2018-04-16T09:28:13.185Z,73.11
2018-04-16T09:29:13.193Z,73.21
2018-04-16T09:30:13.205Z,73.79
2018-04-16T09:31:13.246Z,73.30
2018-04-16T09:32:13.246Z,73.21
2018-04-16T09:33:13.289Z,73.69
2018-04-16T09:34:13.254Z,73.30
2018-04-16T09:35:13.265Z,73.50
2018-04-16T09:36:13.284Z,73.40
2018-04-16T09:37:13.287Z,74.65
2018-04-16T09:38:13.335Z,73.97
2018-04-16T09:39:13.374Z,74.36
2018-04-16T09:40:13.312Z,74.07
2018-04-16T09:41:13.334Z,73.88
2018-04-16T09:42:13.357Z,74.07
2018-04-16T09:43:13.375Z,73.30
2018-04-16T09:44:13.365Z,73.30
2018-04-16T09:45:13.414Z,74.01
2018-04-16T09:46:13.390Z,73.88
2018-04-16T09:47:13.386Z,74.30
2018-04-16T09:48:13.402Z,74.40
2018-04-16T09:49:13.426Z,73.44
2018-04-16T09:50:13.460Z,73.59
2018-04-16T09:51:13.435Z,73.69
2018-04-16T09:52:13.447Z,74.07
2018-04-16T09:53:13.481Z,73.69
2018-04-16T09:54:13.465Z,73.69
2018-04-16T09:55:13.516Z,73.40
2018-04-16T09:56:13.505Z,73.63
2018-04-16T09:57:13.551Z,73.82
2018-04-16T09:58:13.509Z,73.15
2018-04-16T09:59:13.526Z,73.72
2018-04-16T10:00:13.592Z,73.05
2018-04-16T10:01:13.616Z,73.15
2018-04-16T10:02:13.578Z,73.24
2018-04-16T10:03:13.590Z,73.44
2018-04-16T10:04:13.583Z,73.44
2018-04-16T10:05:13.592Z,73.24
2018-04-16T10:06:13.667Z,73.63
2018-04-16T10:07:13.628Z,73.44
2018-04-16T10:08:13.647Z,73.24
2018-04-16T10:09:13.642Z,73.34
2018-04-16T10:10:13.655Z,73.54
2018-04-16T10:11:13.713Z,73.54
2018-04-16T10:12:13.739Z,73.15
2018-04-16T10:13:13.692Z,73.63
2018-04-16T10:14:13.712Z,73.63
2018-04-16T10:15:13.712Z,73.72
2018-04-16T10:16:13.714Z,73.54
2018-04-16T10:17:13.773Z,73.05
2018-04-16T10:18:13.737Z,73.15
2018-04-16T10:19:13.760Z,72.96
2018-04-16T10:20:13.775Z,72.86
2018-04-16T10:21:13.777Z,73.05
2018-04-16T10:22:13.832Z,72.77
2018-04-16T10:23:13.841Z,73.05
2018-04-16T10:24:13.822Z,72.96
2018-04-16T10:25:13.827Z,73.44
2018-04-16T10:26:13.835Z,73.05
2018-04-16T10:27:13.867Z,73.05
2018-04-16T10:28:13.892Z,72.80
2018-04-16T10:29:13.870Z,72.96
2018-04-16T10:30:13.895Z,73.24
2018-04-16T10:31:13.890Z,73.09
2018-04-16T10:32:13.899Z,73.38
2018-04-16T10:33:13.969Z,72.71
2018-04-16T10:34:13.999Z,73.19
2018-04-16T10:35:13.937Z,72.32
2018-04-16T10:36:13.948Z,72.19
2018-04-16T10:37:13.961Z,72.23
2018-04-16T10:38:14.012Z,72.13
2018-04-16T10:39:13.987Z,72.61
2018-04-16T10:40:13.990Z,72.32
2018-04-16T10:41:14.010Z,72.32
2018-04-16T10:42:14.018Z,72.32
2018-04-16T10:43:14.068Z,72.23
2018-04-16T10:44:14.042Z,71.75
2018-04-16T10:45:14.065Z,72.52
2018-04-16T10:46:14.068Z,72.13
2018-04-16T10:47:14.091Z,71.56
2018-04-16T10:48:14.147Z,72.17
2018-04-16T10:49:14.120Z,71.88
2018-04-16T10:50:14.103Z,70.54
2018-04-16T10:51:14.130Z,71.02
2018-04-16T10:52:14.127Z,71.69
2018-04-16T10:53:14.176Z,71.98
2018-04-16T10:54:14.241Z,71.88
2018-04-16T10:55:14.174Z,71.69
2018-04-16T10:56:14.179Z,71.69
2018-04-16T10:57:14.196Z,71.11
2018-04-16T10:58:14.204Z,71.50
2018-04-16T10:59:14.229Z,71.98
2018-04-16T11:00:14.268Z,71.78
2018-04-16T11:01:14.257Z,71.31
2018-04-16T11:02:14.253Z,71.31
2018-04-16T11:03:14.254Z,71.02
2018-04-16T11:04:14.293Z,71.11
2018-04-16T11:05:14.806Z,70.25
2018-04-16T11:06:14.353Z,70.92
2018-04-16T11:07:14.468Z,70.19
2018-04-16T11:08:14.326Z,70.64
2018-04-16T11:09:14.342Z,70.29
2018-04-16T11:10:14.363Z,70.83
2018-04-16T11:11:14.373Z,70.06
2018-04-16T11:12:14.368Z,70.96
2018-04-16T11:13:14.430Z,69.81
2018-04-16T11:14:14.389Z,70.38
2018-04-16T11:15:14.445Z,70.48
2018-04-16T11:16:14.439Z,70.29
2018-04-16T11:17:14.432Z,70.29
2018-04-16T11:18:14.437Z,70.48
2018-04-16T11:19:14.518Z,70.38
2018-04-16T11:20:14.488Z,70.00
2018-04-16T11:21:14.519Z,69.62
2018-04-16T11:22:14.497Z,69.62
2018-04-16T11:23:14.504Z,70.09
2018-04-16T11:24:14.526Z,70.67
2018-04-16T11:25:14.550Z,70.48
2018-04-16T11:26:14.594Z,70.57
2018-04-16T11:27:14.550Z,70.38
2018-04-16T11:28:14.559Z,69.62
2018-04-16T11:29:14.573Z,69.33
2018-04-16T11:30:14.634Z,69.42
2018-04-16T11:31:14.632Z,69.42
2018-04-16T11:32:14.643Z,68.85
2018-04-16T11:33:14.636Z,68.95
2018-04-16T11:34:14.643Z,69.23
2018-04-16T11:35:14.648Z,69.42
2018-04-16T11:36:14.694Z,69.62
2018-04-16T11:37:14.684Z,69.90
2018-04-16T11:38:14.683Z,69.65
2018-04-16T11:39:14.719Z,69.65
2018-04-16T11:40:14.724Z,68.88
2018-04-16T11:41:14.791Z,68.02
2018-04-16T11:42:14.730Z,68.02
2018-04-16T11:43:14.745Z,68.88
2018-04-16T11:44:14.762Z,68.59
2018-04-16T11:45:14.778Z,68.50
2018-04-16T11:46:14.828Z,68.59
2018-04-16T11:47:14.821Z,68.59
2018-04-16T11:48:14.811Z,68.50
2018-04-16T11:49:14.823Z,68.98
2018-04-16T11:50:14.822Z,68.59
2018-04-16T11:51:14.992Z,68.79
2018-04-16T11:52:14.913Z,68.40
2018-04-16T11:53:14.863Z,69.07
2018-04-16T11:54:14.888Z,68.59
2018-04-16T11:55:14.904Z,67.92
2018-04-16T11:56:14.934Z,68.59
2018-04-16T11:57:14.949Z,67.92
2018-04-16T11:58:14.963Z,67.92
2018-04-16T11:59:14.988Z,68.44
2018-04-16T12:00:14.961Z,67.76
2018-04-16T12:01:14.963Z,67.57
2018-04-16T12:02:15.002Z,67.86
2018-04-16T12:03:15.003Z,67.67
2018-04-16T12:04:15.117Z,67.29
2018-04-16T12:05:15.026Z,67.67
2018-04-16T12:06:15.044Z,67.96
2018-04-16T12:07:15.047Z,67.67
2018-04-16T12:08:15.062Z,67.00
2018-04-16T12:09:15.120Z,67.09
2018-04-16T12:10:15.072Z,67.09
2018-04-16T12:11:15.096Z,66.33
2018-04-16T12:12:15.141Z,66.61
2018-04-16T12:13:15.122Z,66.13
2018-04-16T12:14:15.175Z,65.69
2018-04-16T12:15:15.139Z,66.03
2018-04-16T12:16:15.158Z,66.03
2018-04-16T12:17:15.175Z,65.75
2018-04-16T12:18:15.190Z,66.07
2018-04-16T12:19:15.245Z,65.88
2018-04-16T12:20:15.210Z,65.97
2018-04-16T12:21:15.243Z,65.69
2018-04-16T12:22:15.253Z,64.98
2018-04-16T12:23:15.301Z,65.20
2018-04-16T12:24:15.282Z,65.01
2018-04-16T12:25:15.278Z,64.82
2018-04-16T12:26:15.277Z,65.30
2018-04-16T12:27:15.302Z,65.11
2018-04-16T12:28:15.310Z,65.30
2018-04-16T12:29:15.360Z,64.72
2018-04-16T12:30:15.332Z,65.11
2018-04-16T12:31:15.363Z,65.49
2018-04-16T12:32:15.362Z,64.92
2018-04-16T12:33:15.373Z,64.63
2018-04-16T12:34:15.426Z,64.25
2018-04-16T12:35:15.409Z,64.25
2018-04-16T12:36:15.440Z,64.82
2018-04-16T12:37:15.423Z,65.11
2018-04-16T12:38:15.471Z,65.49
2018-04-16T12:39:15.466Z,64.92
2018-04-16T12:40:15.467Z,64.53
2018-04-16T12:41:15.483Z,64.53
2018-04-16T12:42:15.492Z,64.25
2018-04-16T12:43:15.500Z,64.43
2018-04-16T12:44:15.577Z,65.11
2018-04-16T12:45:15.533Z,64.82
2018-04-16T12:46:15.555Z,65.30
2018-04-16T12:47:15.550Z,64.53
2018-04-16T12:48:15.554Z,63.86
2018-04-16T12:49:15.590Z,64.15
2018-04-16T12:50:15.658Z,64.05
2018-04-16T12:51:15.604Z,64.53
2018-04-16T12:52:15.621Z,65.20